Главная страница
METAR-TAF:

METAR-TAF

Аэропорты :

Мурманск, Россия

широта: 68-58N, долгота: 033-03E, высота над уровнем моря: 51 м

Текущие метеонаблюдения

Эта сводка был подготовлена 22 минут назад, в 12:00 UTC
Ветер 2 Узел от южный-юго-западный
Температура -21°C
Влажность 77%
Давление 1021 hPa
Видимость 10 км и более
Нет облачности ниже 1500 м, и нет кучево-дождевой облачности

METAR: ULMM 211200Z 20001MPS CAVOK M21/M24 Q1021 R31/450136 NOSIG RMK QFE758

Время: 15:22 (12:22 UTC)

Прогноз

Эта сводка был подготовлена 1 час и 30 минут назад, в 10:52 UTC
Прогноз действительный с 21-го 12 UTC до 22-го 12 UTC
Ветер 4 Узел от юго-восточный
Видимость 10 км и более
Отдельные облака на высоте 1100 фута
временами
С 21-го 18 UTC до 22-го 06 UTC
Ветер 2 Узел переменных направлений
Видимость: 3100 м
Рассеянная облачность на высоте 1100 фута, Кучево-дождевые.
небольшие ливневые снегопады, дымка

TAF: ULMM 211052Z 2112/2212 13002MPS 9999 SCT011 TEMPO 2118/2206 VRB01MPS 3100 -SHSN BR BKN011CB

Метеонаблюдения и прогнозы для более 4000 аэропортов (сводки METAR и TAF).

Имеющиеся станции представлены на карте желтыми и красными точками.

Чтобы увидеть название станции, наведите на нее мышь.

Затем щелкните, чтобы увидеть метеонаблюдения и метеопрогнозы.

Управление картой: чтобы увеличить масштаб, щелкните зеленые кнопки с черным крестиком; чтобы уменьшить масштаб, щелкните зеленую кнопку с тире; для просмотра соседних карт щелкайте зеленые стрелки.


METAR-TAF: